Time;durP1;ratioP1;P1;durP2;ratioP2;P2;SDS_P1;SDS_P2;PMS_P1;PMS_P2;Temp;Humidity;BMP_temperature;BMP_pressure;BME280_temperature;BME280_humidity;BME280_pressure;Samples;Min_cycle;Max_cycle;Signal;HPM_P1;HPM_P2
2021/06/16 00:00:35;;;;;;;10.57;4.47;;;13.40;83.20;;;;;;5050806;28;20136;-73
2021/06/16 00:03:00;;;;;;;10.43;4.13;;;13.40;83.20;;;;;;5051421;28;20159;-73
2021/06/16 00:05:29;;;;;;;12.77;4.97;;;13.30;83.40;;;;;;5051488;28;20052;-73
2021/06/16 00:07:55;;;;;;;6.60;3.77;;;13.40;83.40;;;;;;5050455;28;20456;-73
2021/06/16 00:10:24;;;;;;;11.23;4.60;;;13.40;83.20;;;;;;5050836;28;20050;-72
2021/06/16 00:12:50;;;;;;;9.70;4.40;;;13.50;83.20;;;;;;5051278;28;20049;-73
2021/06/16 00:15:25;;;;;;;12.70;4.90;;;13.40;83.20;;;;;;5050159;28;20489;-73
2021/06/16 00:17:50;;;;;;;13.77;5.10;;;13.40;83.30;;;;;;5051215;28;20061;-73
2021/06/16 00:20:16;;;;;;;6.40;3.20;;;13.30;83.10;;;;;;5050789;28;20110;-73
2021/06/16 00:22:42;;;;;;;8.60;4.30;;;13.30;83.10;;;;;;5050804;28;20084;-73
2021/06/16 00:25:09;;;;;;;12.10;4.20;;;13.30;83.20;;;;;;5050998;28;20072;-73
2021/06/16 00:27:35;;;;;;;10.47;4.40;;;13.30;83.30;;;;;;5051435;28;20064;-73
2021/06/16 00:30:01;;;;;;;10.30;4.07;;;13.30;83.00;;;;;;5050364;28;20060;-73
2021/06/16 00:32:26;;;;;;;11.23;4.40;;;13.20;83.00;;;;;;5051329;28;20369;-73
2021/06/16 00:34:52;;;;;;;9.57;4.40;;;13.20;83.20;;;;;;5051001;28;20461;-73
2021/06/16 00:37:18;;;;;;;7.43;4.40;;;13.20;83.10;;;;;;5050150;28;20052;-73
2021/06/16 00:39:44;;;;;;;9.33;4.40;;;13.20;83.10;;;;;;5050998;28;20045;-73
2021/06/16 00:42:09;;;;;;;9.90;4.80;;;13.20;83.00;;;;;;5050584;28;20049;-73
2021/06/16 00:44:35;;;;;;;10.33;4.27;;;13.00;83.10;;;;;;5050908;28;20067;-73
2021/06/16 00:47:01;;;;;;;8.90;3.97;;;13.10;83.40;;;;;;5050699;28;20041;-73
2021/06/16 00:49:28;;;;;;;10.50;3.97;;;13.10;83.60;;;;;;5050419;28;20059;-73
2021/06/16 00:51:53;;;;;;;10.03;4.97;;;13.10;83.70;;;;;;5051082;28;20053;-73
2021/06/16 00:54:19;;;;;;;9.63;4.17;;;13.10;83.50;;;;;;5050608;28;20093;-74
2021/06/16 00:56:45;;;;;;;9.57;4.97;;;13.10;83.40;;;;;;5050279;28;20045;-73
2021/06/16 00:59:11;;;;;;;9.73;4.90;;;13.00;83.50;;;;;;5050710;28;20056;-73
2021/06/16 01:01:43;;;;;;;7.70;4.50;;;12.90;83.70;;;;;;5052183;28;20045;-73
2021/06/16 01:04:16;;;;;;;9.83;5.30;;;12.90;84.00;;;;;;5053679;28;20049;-73
2021/06/16 01:06:49;;;;;;;11.10;4.93;;;12.90;84.10;;;;;;5054831;28;20101;-73
2021/06/16 01:09:25;;;;;;;9.07;4.30;;;12.90;84.20;;;;;;5054249;28;20128;-73
2021/06/16 01:12:29;;;;;;;13.40;6.00;;;12.80;84.30;;;;;;5053938;28;20046;-73
2021/06/16 01:15:01;;;;;;;7.93;4.90;;;12.80;84.30;;;;;;4973599;28;20050;-73
2021/06/16 01:17:49;;;;;;;8.30;4.57;;;12.70;84.70;;;;;;4972721;28;20066;-73
2021/06/16 01:20:41;;;;;;;11.23;6.57;;;12.70;84.70;;;;;;5026586;28;20140;-73
2021/06/16 01:23:31;;;;;;;13.65;5.57;;;12.70;84.80;;;;;;5054401;28;20053;-73
2021/06/16 01:26:03;;;;;;;9.63;5.23;;;12.60;84.90;;;;;;5053785;28;20076;-73
2021/06/16 01:28:37;;;;;;;8.93;5.10;;;12.60;85.00;;;;;;5054134;28;20379;-73
2021/06/16 01:31:04;;;;;;;11.83;5.87;;;12.60;85.20;;;;;;5054092;28;20148;-72
2021/06/16 01:33:31;;;;;;;10.43;5.87;;;12.60;85.30;;;;;;5053147;28;20045;-73
2021/06/16 01:35:58;;;;;;;9.77;5.90;;;12.60;85.30;;;;;;5054144;28;20083;-73
2021/06/16 01:38:24;;;;;;;15.03;5.77;;;12.50;85.50;;;;;;5054091;28;20123;-73
2021/06/16 01:40:56;;;;;;;12.40;6.10;;;12.50;85.70;;;;;;5053434;28;20107;-73
2021/06/16 01:43:21;;;;;;;;;;;12.50;85.80;;;;;;5054247;28;20124;-73
2021/06/16 01:45:49;;;;;;;7.43;4.17;;;12.60;85.80;;;;;;5053212;28;20019;-73
2021/06/16 01:48:17;;;;;;;9.30;5.80;;;12.60;85.30;;;;;;5053616;28;20376;-73
2021/06/16 01:50:44;;;;;;;10.43;6.00;;;12.60;85.30;;;;;;5054027;28;20049;-73
2021/06/16 01:53:11;;;;;;;11.70;6.00;;;12.50;85.50;;;;;;5052849;28;20056;-73
2021/06/16 01:55:38;;;;;;;12.37;7.47;;;12.50;85.70;;;;;;5053965;28;20078;-74
2021/06/16 01:58:04;;;;;;;13.30;7.23;;;12.50;85.70;;;;;;5053457;28;20099;-73
2021/06/16 02:00:30;;;;;;;11.97;6.47;;;12.50;85.50;;;;;;5052777;28;20138;-73
2021/06/16 02:02:57;;;;;;;15.43;7.77;;;12.50;85.70;;;;;;5053717;28;20041;-73
2021/06/16 02:05:25;;;;;;;13.87;7.07;;;12.50;85.90;;;;;;5054258;28;20109;-73
2021/06/16 02:08:05;;;;;;;10.97;7.27;;;12.50;86.00;;;;;;5052827;28;20408;-74
2021/06/16 02:10:38;;;;;;;11.43;6.80;;;12.50;85.90;;;;;;5054004;28;20044;-73
2021/06/16 02:13:07;;;;;;;10.63;7.30;;;12.40;85.90;;;;;;5053023;28;20410;-73
2021/06/16 02:15:38;;;;;;;13.30;6.97;;;12.30;86.20;;;;;;5052765;28;20048;-73
2021/06/16 02:18:06;;;;;;;11.00;6.40;;;12.20;86.60;;;;;;5053083;28;20514;-73
2021/06/16 02:20:32;;;;;;;11.97;7.93;;;12.10;86.60;;;;;;5053354;28;20053;-73
2021/06/16 02:22:58;;;;;;;13.37;8.87;;;12.00;86.90;;;;;;5052352;28;20103;-73
2021/06/16 02:25:25;;;;;;;17.97;8.77;;;12.00;87.20;;;;;;5053112;28;20435;-74
2021/06/16 02:27:50;;;;;;;10.23;7.53;;;11.90;87.40;;;;;;5052048;28;20482;-73
2021/06/16 02:30:17;;;;;;;14.63;8.77;;;11.90;87.70;;;;;;5052675;28;20060;-73
2021/06/16 02:32:43;;;;;;;13.37;8.23;;;11.90;87.80;;;;;;5053002;28;20044;-73
2021/06/16 02:35:09;;;;;;;13.73;8.23;;;11.90;88.00;;;;;;5051914;28;20056;-73
2021/06/16 02:37:38;;;;;;;12.17;7.80;;;11.90;88.10;;;;;;5052781;28;20056;-73
2021/06/16 02:40:11;;;;;;;11.50;7.27;;;11.90;88.00;;;;;;5052628;28;20045;-73
2021/06/16 02:42:40;;;;;;;10.37;7.13;;;11.80;88.20;;;;;;5051753;28;20056;-73
2021/06/16 02:45:07;;;;;;;11.77;8.30;;;11.80;88.30;;;;;;5052633;28;20132;-73
2021/06/16 02:47:39;;;;;;;12.00;7.60;;;11.80;88.40;;;;;;5053037;28;20045;-73
2021/06/16 02:50:06;;;;;;;14.00;8.37;;;11.70;88.50;;;;;;5051627;28;20075;-73
2021/06/16 02:52:34;;;;;;;10.83;7.80;;;11.70;88.50;;;;;;5052773;28;20045;-73
2021/06/16 02:55:03;;;;;;;11.07;7.87;;;11.60;88.60;;;;;;5052468;28;20426;-73
2021/06/16 02:57:32;;;;;;;12.73;7.00;;;11.60;88.60;;;;;;5051207;28;20044;-73
2021/06/16 02:59:59;;;;;;;13.70;8.50;;;11.70;89.60;;;;;;5052350;28;20052;-73
2021/06/16 03:02:27;;;;;;;13.40;8.30;;;11.60;88.80;;;;;;5052675;28;20053;-73
2021/06/16 03:04:55;;;;;;;13.23;8.33;;;11.60;88.80;;;;;;5051814;28;20385;-73
2021/06/16 03:07:22;;;;;;;10.50;7.87;;;11.60;89.00;;;;;;5052324;28;20052;-74
2021/06/16 03:09:48;;;;;;;13.90;8.40;;;11.60;89.10;;;;;;5051974;28;20052;-72
2021/06/16 03:12:16;;;;;;;13.40;8.97;;;11.50;89.10;;;;;;5051419;28;20051;-73
2021/06/16 03:14:42;;;;;;;16.37;10.37;;;11.50;89.40;;;;;;5052312;28;20045;-73
2021/06/16 03:17:10;;;;;;;15.77;9.23;;;11.50;89.30;;;;;;5051292;28;20041;-73
2021/06/16 03:19:38;;;;;;;11.37;8.13;;;11.50;89.50;;;;;;5052275;28;20409;-73
2021/06/16 03:22:04;;;;;;;10.63;8.37;;;11.40;89.60;;;;;;5051783;28;20072;-73
2021/06/16 03:24:32;;;;;;;13.23;8.60;;;11.40;89.60;;;;;;5050878;28;20075;-73
2021/06/16 03:26:58;;;;;;;16.73;9.20;;;11.40;89.80;;;;;;5051712;28;20080;-73
2021/06/16 03:29:24;;;;;;;11.20;8.53;;;11.40;89.90;;;;;;5052125;28;20052;-72
2021/06/16 03:31:52;;;;;;;14.70;8.77;;;11.40;89.90;;;;;;5051487;28;20087;-73
2021/06/16 03:34:18;;;;;;;12.37;8.23;;;11.40;90.00;;;;;;5051494;28;20126;-73
2021/06/16 03:36:47;;;;;;;13.30;7.97;;;11.40;90.00;;;;;;5051913;28;20049;-73
2021/06/16 03:39:14;;;;;;;14.33;8.70;;;11.40;90.10;;;;;;5050826;28;20045;-73
2021/06/16 03:41:41;;;;;;;12.63;7.97;;;11.40;90.10;;;;;;5051604;28;20460;-73
2021/06/16 03:44:07;;;;;;;13.33;8.37;;;11.40;90.00;;;;;;5051348;28;20052;-73
2021/06/16 03:46:35;;;;;;;16.97;8.63;;;11.40;90.00;;;;;;5050909;28;20047;-73
2021/06/16 03:49:04;;;;;;;10.17;8.20;;;11.40;90.10;;;;;;5051083;28;20049;-73
2021/06/16 03:51:33;;;;;;;10.27;7.90;;;11.40;90.10;;;;;;5051519;28;20099;-73
2021/06/16 03:54:00;;;;;;;12.97;7.53;;;11.40;90.10;;;;;;5050277;28;20492;-73
2021/06/16 03:56:26;;;;;;;15.90;8.33;;;11.50;90.20;;;;;;5051142;28;20485;-73
2021/06/16 03:58:53;;;;;;;13.07;8.70;;;11.50;90.10;;;;;;5051401;28;20041;-73
2021/06/16 04:01:19;;;;;;;13.10;9.23;;;11.50;90.10;;;;;;5050390;28;20057;-73
2021/06/16 04:03:45;;;;;;;12.17;9.73;;;11.50;90.10;;;;;;5051191;28;20048;-73
2021/06/16 04:06:15;;;;;;;12.60;8.30;;;11.60;90.20;;;;;;5050433;28;20045;-73
2021/06/16 04:08:44;;;;;;;12.53;9.93;;;11.50;90.20;;;;;;5051345;28;20045;-73
2021/06/16 04:11:12;;;;;;;14.50;8.60;;;11.60;90.20;;;;;;5050988;28;20045;-73
2021/06/16 04:13:38;;;;;;;13.90;9.60;;;11.60;90.30;;;;;;5050515;28;20049;-73
2021/06/16 04:16:04;;;;;;;14.53;8.70;;;11.70;90.20;;;;;;5050955;28;20049;-73
2021/06/16 04:18:32;;;;;;;16.53;10.23;;;11.70;90.20;;;;;;5051285;28;20052;-73
2021/06/16 04:20:58;;;;;;;11.20;8.70;;;11.70;90.20;;;;;;5049940;28;20605;-74
2021/06/16 04:23:24;;;;;;;12.40;8.57;;;11.70;90.20;;;;;;5051220;28;20055;-73
2021/06/16 04:25:49;;;;;;;12.57;8.70;;;11.80;90.20;;;;;;5051483;28;20049;-74
2021/06/16 04:28:15;;;;;;;13.00;9.07;;;11.80;90.20;;;;;;5050106;28;20119;-74
2021/06/16 04:30:41;;;;;;;14.90;8.80;;;11.90;90.40;;;;;;5051258;28;20110;-74
2021/06/16 04:33:07;;;;;;;14.87;9.50;;;11.90;90.40;;;;;;5050553;28;20463;-73
2021/06/16 04:35:33;;;;;;;10.43;7.97;;;12.00;90.30;;;;;;5051741;28;20122;-73
2021/06/16 04:37:58;;;;;;;11.80;8.03;;;12.10;90.20;;;;;;5054710;28;20494;-73
2021/06/16 04:40:24;;;;;;;11.40;8.07;;;12.10;90.20;;;;;;5055416;28;20064;-73
2021/06/16 04:42:50;;;;;;;10.40;8.33;;;12.20;90.50;;;;;;5054061;28;20086;-74
2021/06/16 04:45:16;;;;;;;14.17;9.40;;;12.40;90.20;;;;;;5054945;28;20049;-74
2021/06/16 04:47:42;;;;;;;11.90;8.80;;;12.50;90.00;;;;;;5055156;28;20045;-74
2021/06/16 04:50:10;;;;;;;10.33;8.20;;;12.60;89.80;;;;;;5053969;28;20072;-73
2021/06/16 04:52:36;;;;;;;16.27;8.60;;;12.60;89.70;;;;;;5054841;28;20521;-73
2021/06/16 04:55:02;;;;;;;12.27;8.53;;;12.60;89.70;;;;;;5053677;28;20056;-73
2021/06/16 04:57:27;;;;;;;10.63;8.87;;;12.60;89.90;;;;;;5053102;28;20045;-73
2021/06/16 04:59:53;;;;;;;13.17;8.50;;;12.70;90.00;;;;;;5054389;28;20051;-73
2021/06/16 05:02:19;;;;;;;15.07;9.33;;;12.80;89.70;;;;;;5053775;28;20474;-73
2021/06/16 05:04:44;;;;;;;14.33;9.73;;;12.90;89.80;;;;;;5053791;28;20056;-73
2021/06/16 05:07:10;;;;;;;13.57;9.20;;;13.00;89.40;;;;;;5053555;28;20072;-73
2021/06/16 05:09:35;;;;;;;10.60;9.13;;;13.00;89.20;;;;;;5053091;28;20074;-73
2021/06/16 05:12:01;;;;;;;12.17;9.10;;;13.10;89.30;;;;;;5053048;28;20041;-73
2021/06/16 05:14:29;;;;;;;10.37;7.33;;;13.10;89.00;;;;;;5053438;28;20371;-73
2021/06/16 05:16:55;;;;;;;16.87;9.60;;;13.10;88.80;;;;;;5052429;28;20051;-73
2021/06/16 05:19:23;;;;;;;14.70;9.73;;;13.30;88.40;;;;;;5053642;28;20053;-74
2021/06/16 05:21:49;;;;;;;13.07;8.83;;;13.40;87.90;;;;;;5052962;28;20091;-73
2021/06/16 05:24:15;;;;;;;14.73;9.30;;;13.50;87.80;;;;;;5053013;28;20525;-73
2021/06/16 05:26:41;;;;;;;11.50;7.80;;;13.50;87.60;;;;;;5053634;28;20098;-74
2021/06/16 05:29:08;;;;;;;11.27;8.63;;;13.50;87.60;;;;;;5053558;28;20049;-73
2021/06/16 05:31:35;;;;;;;15.03;9.50;;;13.60;87.60;;;;;;5053322;28;20513;-74
2021/06/16 05:34:01;;;;;;;12.80;9.43;;;13.60;87.60;;;;;;5053014;28;20091;-73
2021/06/16 05:36:27;;;;;;;10.17;9.13;;;13.70;87.50;;;;;;5053934;28;20049;-73
2021/06/16 05:38:53;;;;;;;12.70;8.97;;;13.70;87.50;;;;;;5053284;28;20111;-74
2021/06/16 05:41:19;;;;;;;14.30;9.30;;;13.80;87.90;;;;;;5053202;28;20128;-73
2021/06/16 05:43:45;;;;;;;9.53;7.83;;;13.90;87.70;;;;;;5053668;28;20076;-73
2021/06/16 05:46:11;;;;;;;11.47;9.53;;;14.00;87.30;;;;;;5052721;28;20071;-73
2021/06/16 05:48:37;;;;;;;13.50;9.33;;;14.20;86.90;;;;;;5053163;28;20045;-73
2021/06/16 05:51:03;;;;;;;13.77;8.77;;;14.30;86.60;;;;;;5053547;28;20075;-74
2021/06/16 05:53:28;;;;;;;11.63;7.97;;;14.40;86.40;;;;;;5052936;28;20052;-74
2021/06/16 05:55:54;;;;;;;10.40;8.00;;;14.40;86.30;;;;;;5052990;28;20061;-74
2021/06/16 05:58:20;;;;;;;14.57;8.67;;;14.50;86.10;;;;;;5052131;28;20045;-74
2021/06/16 06:00:45;;;;;;;11.63;8.57;;;14.60;86.00;;;;;;5051606;28;20045;-73
2021/06/16 06:03:11;;;;;;;13.03;7.87;;;14.70;85.70;;;;;;5052131;28;20087;-75
2021/06/16 06:05:37;;;;;;;14.77;7.30;;;15.00;85.10;;;;;;5052122;28;20040;-74
2021/06/16 06:08:02;;;;;;;13.47;8.37;;;15.10;84.70;;;;;;5051248;28;20075;-75
2021/06/16 06:10:28;;;;;;;15.87;7.93;;;15.10;84.60;;;;;;5053293;28;20045;-72
2021/06/16 06:12:55;;;;;;;13.83;8.30;;;15.20;84.60;;;;;;5051663;28;20048;-75
2021/06/16 06:15:22;;;;;;;13.10;7.37;;;15.20;84.60;;;;;;5053019;28;20052;-75
2021/06/16 06:17:47;;;;;;;16.00;8.07;;;15.30;84.50;;;;;;5053261;28;20040;-74
2021/06/16 06:20:13;;;;;;;16.00;8.50;;;15.30;84.20;;;;;;5052175;28;20060;-74
2021/06/16 06:22:39;;;;;;;16.13;8.90;;;15.40;84.00;;;;;;5053642;28;20131;-73
2021/06/16 06:25:06;;;;;;;10.23;7.63;;;15.40;83.90;;;;;;5052980;28;20057;-77
2021/06/16 06:27:32;;;;;;;12.50;7.13;;;15.50;83.70;;;;;;5051690;28;20041;-75
2021/06/16 06:29:58;;;;;;;18.23;8.80;;;15.50;83.30;;;;;;5052229;28;20059;-76
2021/06/16 06:32:23;;;;;;;14.47;9.07;;;15.60;83.00;;;;;;5052005;28;20040;-77
2021/06/16 06:34:49;;;;;;;13.53;8.90;;;15.60;83.00;;;;;;5050968;28;20410;-77
2021/06/16 06:37:15;;;;;;;13.17;7.97;;;15.70;83.00;;;;;;5051638;28;20446;-77
2021/06/16 06:39:41;;;;;;;11.57;8.70;;;15.70;82.80;;;;;;5051794;28;20064;-76
2021/06/16 06:42:08;;;;;;;12.63;7.40;;;15.80;82.80;;;;;;5050741;28;20486;-76
2021/06/16 06:44:33;;;;;;;11.07;8.70;;;15.80;82.60;;;;;;5052070;28;20102;-76
2021/06/16 06:46:59;;;;;;;10.73;7.43;;;16.00;82.70;;;;;;5051717;28;20045;-76
2021/06/16 06:49:24;;;;;;;15.57;8.67;;;16.00;82.50;;;;;;5051831;28;20060;-77
2021/06/16 06:51:51;;;;;;;10.57;8.03;;;16.10;82.50;;;;;;5052643;28;20048;-77
2021/06/16 06:54:17;;;;;;;13.23;8.93;;;16.20;82.50;;;;;;5052359;28;20045;-77
2021/06/16 06:56:42;;;;;;;9.83;7.00;;;16.30;82.60;;;;;;5051589;28;20067;-77
2021/06/16 06:59:08;;;;;;;13.10;7.93;;;16.40;82.40;;;;;;5051240;28;20048;-76
2021/06/16 07:01:33;;;;;;;13.20;8.33;;;16.50;82.10;;;;;;5052369;28;20107;-77
2021/06/16 07:04:01;;;;;;;11.60;8.87;;;16.60;82.00;;;;;;5051380;28;20056;-78
2021/06/16 07:06:31;;;;;;;13.13;7.80;;;16.70;82.20;;;;;;5052457;28;20056;-77
2021/06/16 07:08:57;;;;;;;15.80;8.77;;;16.80;82.00;;;;;;5051675;28;20044;-77
2021/06/16 07:11:23;;;;;;;15.37;7.60;;;16.90;81.80;;;;;;5051608;28;20458;-77
2021/06/16 07:13:49;;;;;;;12.43;7.43;;;17.00;81.50;;;;;;5052317;28;20041;-77
2021/06/16 07:16:14;;;;;;;10.03;6.80;;;17.10;81.40;;;;;;5051301;28;20128;-76
2021/06/16 07:18:40;;;;;;;11.47;7.87;;;17.20;81.00;;;;;;5052016;28;20457;-77
2021/06/16 07:21:06;;;;;;;11.67;7.03;;;17.20;80.90;;;;;;5051864;28;20132;-76
2021/06/16 07:23:31;;;;;;;12.60;7.03;;;17.30;80.70;;;;;;5051067;28;20049;-77
2021/06/16 07:25:58;;;;;;;10.33;7.00;;;17.30;80.40;;;;;;5051619;28;20068;-75
2021/06/16 07:28:23;;;;;;;16.57;8.23;;;17.40;80.10;;;;;;5051542;28;20512;-77
2021/06/16 07:30:49;;;;;;;12.80;8.63;;;17.40;80.30;;;;;;5050913;28;20060;-77
2021/06/16 07:33:17;;;;;;;12.43;7.83;;;17.60;80.10;;;;;;5051305;28;20136;-76
2021/06/16 07:35:44;;;;;;;13.43;8.00;;;17.70;79.80;;;;;;5051990;28;20140;-77
2021/06/16 07:38:13;;;;;;;17.67;8.17;;;17.80;79.30;;;;;;5050772;28;20569;-77
2021/06/16 07:40:39;;;;;;;11.67;7.20;;;17.80;78.70;;;;;;5051700;28;20602;-77
2021/06/16 07:43:05;;;;;;;12.10;7.37;;;17.90;78.00;;;;;;5051417;28;20057;-77
2021/06/16 07:45:31;;;;;;;14.13;8.10;;;18.00;77.60;;;;;;5050953;28;20395;-77
2021/06/16 07:47:57;;;;;;;11.17;7.93;;;18.00;77.40;;;;;;5051616;28;20077;-77
2021/06/16 07:50:25;;;;;;;10.40;7.93;;;18.20;77.70;;;;;;5051589;28;20116;-77
2021/06/16 07:52:51;;;;;;;12.00;8.30;;;18.20;77.30;;;;;;5050824;28;20091;-76
2021/06/16 07:55:17;;;;;;;10.47;6.40;;;18.20;76.90;;;;;;5051325;28;20294;-77
2021/06/16 07:57:43;;;;;;;9.97;7.00;;;18.30;76.40;;;;;;5051523;28;20044;-77
2021/06/16 08:00:09;;;;;;;11.57;6.60;;;18.40;76.10;;;;;;5050347;28;20051;-77
2021/06/16 08:02:34;;;;;;;11.20;6.87;;;18.50;76.20;;;;;;5051522;28;20053;-77
2021/06/16 08:05:00;;;;;;;9.67;6.40;;;18.60;76.30;;;;;;5051115;28;20049;-77
2021/06/16 08:07:26;;;;;;;10.63;6.60;;;18.70;75.70;;;;;;5050675;28;20049;-76
2021/06/16 08:09:51;;;;;;;12.00;6.50;;;18.80;75.10;;;;;;5050394;28;20374;-77
2021/06/16 08:12:17;;;;;;;7.77;5.17;;;18.90;74.80;;;;;;5050773;28;20049;-77
2021/06/16 08:14:43;;;;;;;12.33;7.50;;;19.00;74.00;;;;;;5051103;28;20449;-77
2021/06/16 08:17:09;;;;;;;10.00;5.97;;;19.10;73.50;;;;;;5051054;28;20474;-77
2021/06/16 08:19:36;;;;;;;10.27;5.43;;;19.20;73.00;;;;;;5050303;28;20159;-76
2021/06/16 08:22:04;;;;;;;11.10;5.67;;;19.40;72.70;;;;;;5050968;28;20053;-75
2021/06/16 08:24:30;;;;;;;10.83;5.13;;;19.50;72.20;;;;;;5051224;28;20051;-76
2021/06/16 08:26:55;;;;;;;8.93;4.77;;;19.70;71.80;;;;;;5050569;28;20124;-77
2021/06/16 08:29:21;;;;;;;12.23;6.00;;;19.80;71.50;;;;;;5051690;28;20056;-80
2021/06/16 08:31:47;;;;;;;12.53;4.73;;;19.80;70.90;;;;;;5052103;28;20260;-80
2021/06/16 08:34:16;;;;;;;10.63;4.70;;;19.90;70.40;;;;;;5050722;28;20053;-81
2021/06/16 08:36:44;;;;;;;8.97;5.50;;;20.00;70.20;;;;;;5051621;28;20049;-80
2021/06/16 08:39:10;;;;;;;12.23;6.00;;;20.20;70.20;;;;;;5051831;28;20461;-80
2021/06/16 08:41:36;;;;;;;8.63;4.40;;;20.30;70.00;;;;;;5050854;28;20421;-80
2021/06/16 08:44:06;;;;;;;7.47;4.23;;;20.40;69.70;;;;;;5051563;28;20057;-80
2021/06/16 08:46:32;;;;;;;10.60;5.17;;;20.50;69.80;;;;;;5051693;28;20045;-80
2021/06/16 08:48:58;;;;;;;7.50;4.33;;;20.70;69.90;;;;;;5050669;28;20130;-80
2021/06/16 08:51:23;;;;;;;9.50;4.73;;;20.80;69.60;;;;;;5051513;28;20366;-80
2021/06/16 08:53:49;;;;;;;8.17;3.93;;;21.10;69.10;;;;;;5051655;28;20049;-78
2021/06/16 08:56:15;;;;;;;11.43;4.37;;;21.20;67.80;;;;;;5050791;28;20500;-77
2021/06/16 08:58:42;;;;;;;10.73;3.67;;;21.30;66.30;;;;;;5051569;28;20045;-78
2021/06/16 09:01:09;;;;;;;9.27;3.50;;;21.40;65.90;;;;;;5050992;28;20057;-78
2021/06/16 09:03:36;;;;;;;9.00;2.53;;;21.50;65.40;;;;;;5050760;28;20068;-78
2021/06/16 09:06:15;;;;;;;7.93;2.87;;;21.60;64.60;;;;;;5051018;28;20448;-78
2021/06/16 09:08:53;;;;;;;7.53;3.15;;;21.70;63.40;;;;;;5050934;28;20045;-79
2021/06/16 09:11:20;;;;;;;7.95;3.40;;;21.70;62.60;;;;;;5050540;28;20075;-79
2021/06/16 09:13:46;;;;;;;4.78;2.38;;;21.80;62.60;;;;;;5051076;28;20102;-78
2021/06/16 09:16:27;;;;;;;7.30;3.10;;;21.90;62.50;;;;;;5050042;28;20045;-79
2021/06/16 09:18:53;;;;;;;14.68;3.55;;;22.00;60.90;;;;;;5051468;28;20056;-78
2021/06/16 09:21:39;;;;;;;7.18;2.20;;;22.10;62.20;;;;;;5050889;28;20057;-78
2021/06/16 09:24:08;;;;;;;8.48;2.35;;;22.40;61.30;;;;;;5053878;28;20056;-78
2021/06/16 09:26:36;;;;;;;6.10;2.95;;;22.60;60.80;;;;;;5054864;28;20049;-79
2021/06/16 09:29:03;;;;;;;6.78;2.40;;;22.90;59.60;;;;;;5054344;28;20061;-80
2021/06/16 09:31:36;;;;;;;8.25;2.63;;;23.00;59.00;;;;;;5054470;28;20053;-76
2021/06/16 09:34:22;;;;;;;9.10;3.30;;;23.30;57.50;;;;;;5053747;28;20053;-76
2021/06/16 09:36:54;;;;;;;9.40;2.25;;;23.50;55.30;;;;;;5051704;28;20136;-78
2021/06/16 09:39:24;;;;;;;4.90;1.95;;;23.60;55.80;;;;;;5051978;28;20045;-76
2021/06/16 09:42:01;;;;;;;7.05;2.40;;;23.70;55.10;;;;;;5054261;28;20516;-77
2021/06/16 09:44:45;;;;;;;5.72;2.08;;;23.80;53.90;;;;;;5053876;28;20106;-77
2021/06/16 09:47:16;;;;;;;7.55;2.25;;;23.90;53.40;;;;;;5053932;28;20041;-76
2021/06/16 09:49:56;;;;;;;7.18;2.30;;;24.00;53.20;;;;;;5054340;28;20053;-76
2021/06/16 09:52:36;;;;;;;5.65;2.60;;;24.00;53.10;;;;;;5053135;28;20056;-76
2021/06/16 09:55:22;;;;;;;9.50;2.97;;;24.10;52.50;;;;;;5053713;28;20528;-78
2021/06/16 09:58:01;;;;;;;8.30;2.53;;;24.20;52.30;;;;;;5053702;28;20052;-78
2021/06/16 10:00:39;;;;;;;7.07;2.40;;;24.20;51.50;;;;;;5052433;28;20056;-78
2021/06/16 10:03:12;;;;;;;7.10;2.53;;;24.20;51.50;;;;;;5053894;28;20107;-79
2021/06/16 10:06:06;;;;;;;9.43;2.80;;;24.30;51.40;;;;;;5053400;28;20053;-78
2021/06/16 10:08:43;;;;;;;5.75;2.42;;;24.30;50.90;;;;;;5052629;28;20156;-77
2021/06/16 10:11:10;;;;;;;6.53;2.22;;;24.30;50.60;;;;;;5054034;28;20045;-77
2021/06/16 10:13:36;;;;;;;5.97;2.20;;;24.40;49.70;;;;;;5053270;28;20096;-77
2021/06/16 10:16:06;;;;;;;7.10;2.05;;;24.40;49.80;;;;;;5053706;28;20055;-77
2021/06/16 10:18:39;;;;;;;6.35;2.33;;;24.50;49.10;;;;;;5053960;28;20052;-77
2021/06/16 10:21:06;;;;;;;6.57;2.13;;;24.50;48.40;;;;;;5053043;28;20118;-77
2021/06/16 10:23:32;;;;;;;5.18;1.80;;;24.50;48.80;;;;;;5053862;28;20456;-77
2021/06/16 10:26:17;;;;;;;8.13;2.60;;;24.60;49.10;;;;;;5053100;28;20049;-77
2021/06/16 10:28:51;;;;;;;7.35;2.40;;;24.60;48.70;;;;;;5053780;28;20575;-77
2021/06/16 10:31:18;;;;;;;6.30;2.90;;;24.60;48.90;;;;;;5053294;28;20044;-79
2021/06/16 10:33:55;;;;;;;4.47;2.38;;;24.70;49.50;;;;;;5052890;28;20049;-78
2021/06/16 10:36:21;;;;;;;5.78;1.60;;;24.80;48.80;;;;;;5053560;28;20057;-78
2021/06/16 10:38:59;;;;;;;8.25;2.20;;;24.90;48.70;;;;;;5053980;28;20051;-77
2021/06/16 10:41:37;;;;;;;8.13;2.17;;;24.90;46.90;;;;;;5053094;28;20104;-77
2021/06/16 10:44:13;;;;;;;8.18;2.13;;;24.90;48.30;;;;;;5053637;28;20102;-77
2021/06/16 10:47:02;;;;;;;5.97;1.73;;;24.90;46.40;;;;;;5053650;28;20099;-77
2021/06/16 10:49:40;;;;;;;7.60;2.25;;;24.90;46.10;;;;;;5053519;28;20053;-77
2021/06/16 10:52:07;;;;;;;4.57;1.63;;;24.80;46.60;;;;;;5053336;28;20507;-77
2021/06/16 10:54:34;;;;;;;6.13;1.90;;;24.80;47.20;;;;;;5052639;28;20443;-78
2021/06/16 10:57:11;;;;;;;4.35;1.90;;;24.90;48.40;;;;;;5053013;28;20044;-77
2021/06/16 10:59:42;;;;;;;5.72;2.08;;;25.00;46.50;;;;;;5053208;28;20052;-77
2021/06/16 11:02:12;;;;;;;7.72;2.83;;;25.10;47.10;;;;;;5052406;28;20045;-78
2021/06/16 11:04:39;;;;;;;4.45;1.75;;;25.10;45.90;;;;;;5053721;28;20051;-78
2021/06/16 11:07:30;;;;;;;4.82;1.80;;;25.10;46.20;;;;;;5053055;28;20048;-77
2021/06/16 11:09:56;;;;;;;;;;;25.20;46.00;;;;;;5052590;28;20073;-78
2021/06/16 11:12:40;;;;;;;7.97;1.92;;;25.30;46.60;;;;;;5052930;28;20003;-77
2021/06/16 11:15:11;;;;;;;4.28;1.52;;;25.50;45.90;;;;;;5052494;28;20088;-78
2021/06/16 11:17:36;;;;;;;5.70;2.03;;;25.50;44.80;;;;;;5053280;28;20120;-78
2021/06/16 11:20:19;;;;;;;8.02;1.77;;;25.50;45.00;;;;;;5052993;28;20517;-78
2021/06/16 11:22:59;;;;;;;8.10;1.90;;;25.50;45.10;;;;;;5035356;28;20133;-78
2021/06/16 11:25:36;;;;;;;6.00;2.00;;;25.60;45.80;;;;;;5052578;28;20056;-78
2021/06/16 11:28:17;;;;;;;6.28;1.80;;;25.70;45.50;;;;;;5052631;28;20160;-80
2021/06/16 11:30:47;;;;;;;;;;;25.70;44.80;;;;;;5052634;28;20057;-79
2021/06/16 11:33:16;;;;;;;7.93;1.75;;;25.80;45.90;;;;;;5052588;28;20011;-78
2021/06/16 11:35:50;;;;;;;4.22;1.70;;;25.80;45.40;;;;;;5052353;28;20060;-77
2021/06/16 11:38:19;;;;;;;5.00;1.65;;;26.00;44.50;;;;;;5051124;28;20427;-79
2021/06/16 11:41:04;;;;;;;7.63;1.67;;;26.10;44.20;;;;;;5052769;28;20057;-78
2021/06/16 11:43:32;;;;;;;5.30;1.50;;;26.20;44.40;;;;;;5052097;28;20045;-81
2021/06/16 11:46:16;;;;;;;6.38;1.95;;;26.30;43.70;;;;;;5051902;28;20049;-78
2021/06/16 11:48:45;;;;;;;2.78;1.60;;;26.20;43.70;;;;;;5052525;28;20485;-80
2021/06/16 11:51:12;;;;;;;3.50;1.90;;;26.20;43.60;;;;;;5051437;28;20531;-78
2021/06/16 11:53:38;;;;;;;5.82;1.48;;;26.30;43.60;;;;;;5052574;28;20052;-78
2021/06/16 11:56:10;;;;;;;6.88;2.03;;;26.30;43.90;;;;;;5051793;28;20075;-76
2021/06/16 11:58:38;;;;;;;7.75;1.58;;;26.40;43.20;;;;;;5050619;28;20102;-77
2021/06/16 12:01:05;;;;;;;5.95;1.90;;;26.40;43.40;;;;;;5050637;28;20470;-77
2021/06/16 12:03:31;;;;;;;5.88;1.45;;;26.40;43.00;;;;;;5051334;28;20041;-76
2021/06/16 12:06:10;;;;;;;5.53;2.15;;;26.40;42.20;;;;;;5050636;28;20417;-76
2021/06/16 12:08:37;;;;;;;7.25;1.77;;;26.50;42.60;;;;;;5051391;28;20081;-76
2021/06/16 12:11:16;;;;;;;4.22;1.60;;;26.50;42.80;;;;;;5050978;28;20091;-76
2021/06/16 12:13:53;;;;;;;4.63;1.55;;;26.60;42.10;;;;;;5050446;28;20056;-76
2021/06/16 12:16:30;;;;;;;6.80;1.75;;;26.70;42.30;;;;;;5050802;28;20053;-77
2021/06/16 12:19:17;;;;;;;6.85;1.75;;;26.70;42.20;;;;;;5050575;28;20072;-76
2021/06/16 12:21:59;;;;;;;4.65;1.70;;;26.90;42.00;;;;;;5051234;28;20106;-75
2021/06/16 12:24:28;;;;;;;6.38;1.75;;;27.00;41.90;;;;;;5051363;28;20080;-76
2021/06/16 12:27:01;;;;;;;7.57;1.80;;;27.10;41.90;;;;;;5050223;28;20045;-76
2021/06/16 12:29:28;;;;;;;4.28;1.70;;;27.20;42.60;;;;;;5051195;28;20087;-75
2021/06/16 12:31:55;;;;;;;5.85;1.55;;;27.30;42.20;;;;;;5051300;28;20051;-75
2021/06/16 12:34:34;;;;;;;4.90;1.75;;;27.40;42.20;;;;;;5049545;28;20087;-75
2021/06/16 12:37:16;;;;;;;8.68;1.98;;;27.30;42.10;;;;;;5051147;28;20068;-74
2021/06/16 12:39:55;;;;;;;4.53;1.40;;;27.30;41.70;;;;;;5050263;28;20122;-77
2021/06/16 12:42:21;;;;;;;5.47;1.52;;;27.30;41.60;;;;;;5050540;28;20049;-74
2021/06/16 12:44:49;;;;;;;4.50;1.42;;;27.40;41.70;;;;;;5050521;28;20418;-75
2021/06/16 12:47:19;;;;;;;6.25;1.60;;;27.50;41.30;;;;;;5050199;28;20061;-75
2021/06/16 12:49:53;;;;;;;6.57;2.03;;;27.50;41.90;;;;;;5050588;28;20049;-75